createdAt,value
2018-02-03T00:00:33.425Z,3.40
2018-02-03T00:01:35.972Z,3.40
2018-02-03T00:02:38.461Z,3.40
2018-02-03T00:03:41.764Z,3.30
2018-02-03T00:04:44.297Z,3.30
2018-02-03T00:05:46.818Z,3.30
2018-02-03T00:06:49.344Z,3.30
2018-02-03T00:07:51.868Z,3.30
2018-02-03T00:08:54.372Z,3.30
2018-02-03T00:09:58.322Z,3.40
2018-02-03T00:11:00.812Z,3.30
2018-02-03T00:12:03.405Z,3.30
2018-02-03T00:13:06.678Z,3.30
2018-02-03T00:14:09.184Z,3.30
2018-02-03T00:15:12.426Z,3.30
2018-02-03T00:16:14.906Z,3.30
2018-02-03T00:17:17.676Z,3.30
2018-02-03T00:18:20.164Z,3.20
2018-02-03T00:19:23.387Z,3.30
2018-02-03T00:20:25.875Z,3.20
2018-02-03T00:21:28.393Z,3.20
2018-02-03T00:22:30.902Z,3.20
2018-02-03T00:23:33.432Z,3.20
2018-02-03T00:24:35.944Z,3.20
2018-02-03T00:25:38.630Z,3.20
2018-02-03T00:26:41.893Z,3.20
2018-02-03T00:27:45.135Z,3.20
2018-02-03T00:28:47.643Z,3.20
2018-02-03T00:29:51.848Z,3.20
2018-02-03T00:30:55.145Z,3.20
2018-02-03T00:31:58.446Z,3.20
2018-02-03T00:33:01.752Z,3.20
2018-02-03T00:34:04.341Z,3.10
2018-02-03T00:35:07.568Z,3.20
2018-02-03T00:36:10.057Z,3.10
2018-02-03T00:37:13.303Z,3.10
2018-02-03T00:38:15.804Z,3.10
2018-02-03T00:39:19.078Z,3.20
2018-02-03T00:40:21.600Z,3.20
2018-02-03T00:41:24.179Z,3.20
2018-02-03T00:42:26.925Z,3.20
2018-02-03T00:43:30.179Z,3.10
2018-02-03T00:44:33.028Z,3.10
2018-02-03T00:45:35.529Z,3.10
2018-02-03T00:46:38.020Z,3.10
2018-02-03T00:47:41.260Z,3.10
2018-02-03T00:48:43.767Z,3.10
2018-02-03T00:49:46.439Z,3.10
2018-02-03T00:50:48.956Z,3.20
2018-02-03T00:51:53.125Z,3.10
2018-02-03T00:52:55.596Z,3.10
2018-02-03T00:53:58.198Z,3.20
2018-02-03T00:55:01.563Z,3.10
2018-02-03T00:56:04.056Z,3.10
2018-02-03T00:57:06.532Z,3.10
2018-02-03T00:58:09.024Z,3.10
2018-02-03T00:59:11.584Z,3.10
2018-02-03T01:00:14.159Z,3.20
2018-02-03T01:01:16.822Z,3.10
2018-02-03T01:02:19.330Z,3.10
2018-02-03T01:03:21.831Z,3.00
2018-02-03T01:04:24.332Z,3.00
2018-02-03T01:05:27.645Z,3.00
2018-02-03T01:06:30.150Z,3.00
2018-02-03T01:07:32.646Z,3.10
2018-02-03T01:08:35.113Z,3.10
2018-02-03T01:09:38.378Z,3.10
2018-02-03T01:10:40.855Z,3.10
2018-02-03T01:11:43.344Z,3.10
2018-02-03T01:12:46.598Z,3.10
2018-02-03T01:13:49.083Z,3.10
2018-02-03T01:14:51.600Z,3.10
2018-02-03T01:15:54.326Z,3.10
2018-02-03T01:16:57.113Z,3.00
2018-02-03T01:17:59.618Z,3.00
2018-02-03T01:19:02.118Z,3.10
2018-02-03T01:20:04.601Z,3.10
2018-02-03T01:21:07.094Z,3.10
2018-02-03T01:22:09.589Z,3.10
2018-02-03T01:23:12.889Z,3.10
2018-02-03T01:24:15.443Z,3.10
2018-02-03T01:25:17.896Z,3.10
2018-02-03T01:26:20.428Z,3.10
2018-02-03T01:27:23.048Z,3.10
2018-02-03T01:28:25.563Z,3.10
2018-02-03T01:29:28.969Z,3.10
2018-02-03T01:30:31.459Z,3.10
2018-02-03T01:31:33.965Z,3.10
2018-02-03T01:32:37.254Z,3.10
2018-02-03T01:33:39.768Z,3.00
2018-02-03T01:34:42.276Z,3.10
2018-02-03T01:35:44.858Z,3.00
2018-02-03T01:36:48.153Z,3.00
2018-02-03T01:37:51.406Z,2.90
2018-02-03T01:38:53.889Z,3.00
2018-02-03T01:39:56.415Z,3.00
2018-02-03T01:40:58.891Z,2.90
2018-02-03T01:42:01.380Z,2.90
2018-02-03T01:43:03.867Z,2.90
2018-02-03T01:44:06.399Z,2.90
2018-02-03T01:45:09.728Z,2.70
2018-02-03T01:46:12.206Z,2.70
2018-02-03T01:47:14.701Z,2.60
2018-02-03T01:48:18.056Z,2.50
2018-02-03T01:49:20.515Z,2.50
2018-02-03T01:50:22.993Z,2.40
2018-02-03T01:51:25.517Z,2.40
2018-02-03T01:52:28.008Z,2.30
2018-02-03T01:53:30.665Z,2.20
2018-02-03T01:54:33.176Z,2.20
2018-02-03T01:55:35.809Z,2.10
2018-02-03T01:56:39.067Z,2.10
2018-02-03T01:57:41.573Z,2.10
2018-02-03T01:58:44.259Z,2.10
2018-02-03T01:59:46.743Z,2.10
2018-02-03T02:00:49.223Z,2.10
2018-02-03T02:01:51.687Z,2.20
2018-02-03T02:02:54.185Z,2.20
2018-02-03T02:03:59.275Z,2.10
2018-02-03T02:05:01.793Z,2.20
2018-02-03T02:06:07.751Z,2.10
2018-02-03T02:07:10.289Z,2.10
2018-02-03T02:08:12.801Z,2.10
2018-02-03T02:09:16.428Z,2.10
2018-02-03T02:10:18.954Z,2.00
2018-02-03T02:11:21.441Z,1.90
2018-02-03T02:12:25.984Z,1.90
2018-02-03T02:13:28.472Z,1.90
2018-02-03T02:14:31.028Z,1.80
2018-02-03T02:15:33.514Z,1.80
2018-02-03T02:16:36.006Z,1.80
2018-02-03T02:17:39.328Z,1.80
2018-02-03T02:18:42.351Z,1.70
2018-02-03T02:19:45.569Z,1.70
2018-02-03T02:20:48.047Z,1.70
2018-02-03T02:21:50.523Z,1.70
2018-02-03T02:22:53.015Z,1.70
2018-02-03T02:23:56.268Z,1.80
2018-02-03T02:24:58.764Z,1.80
2018-02-03T02:26:01.237Z,1.90
2018-02-03T02:27:03.708Z,1.90
2018-02-03T02:28:06.953Z,2.00
2018-02-03T02:29:09.420Z,2.00
2018-02-03T02:30:13.981Z,2.00
2018-02-03T02:31:16.460Z,2.30
2018-02-03T02:32:18.931Z,2.00
2018-02-03T02:33:22.175Z,2.10
2018-02-03T02:34:24.661Z,2.10
2018-02-03T02:35:27.168Z,2.10
2018-02-03T02:36:30.423Z,2.10
2018-02-03T02:37:32.909Z,2.10
2018-02-03T02:38:35.402Z,2.10
2018-02-03T02:39:38.647Z,2.20
2018-02-03T02:40:41.145Z,2.10
2018-02-03T02:41:44.393Z,2.20
2018-02-03T02:42:46.904Z,2.20
2018-02-03T02:43:51.103Z,2.20
2018-02-03T02:44:53.578Z,2.20
2018-02-03T02:45:57.834Z,2.30
2018-02-03T02:47:00.344Z,2.20
2018-02-03T02:48:02.868Z,2.20
2018-02-03T02:49:05.377Z,2.30
2018-02-03T02:50:07.859Z,2.30
2018-02-03T02:51:10.700Z,2.30
2018-02-03T02:52:13.217Z,2.30
2018-02-03T02:53:15.726Z,2.20
2018-02-03T02:54:18.253Z,2.30
2018-02-03T02:55:20.762Z,2.30
2018-02-03T02:56:23.246Z,2.30
2018-02-03T02:57:26.521Z,2.30
2018-02-03T02:58:29.005Z,2.30
2018-02-03T02:59:31.485Z,2.30
2018-02-03T03:00:34.525Z,2.30
2018-02-03T03:01:37.801Z,2.30
2018-02-03T03:02:40.361Z,2.30
2018-02-03T03:03:43.818Z,2.30
2018-02-03T03:04:46.294Z,2.30
2018-02-03T03:05:48.924Z,2.30
2018-02-03T03:06:52.277Z,2.30
2018-02-03T03:07:54.760Z,2.30
2018-02-03T03:08:57.479Z,2.30
2018-02-03T03:09:59.948Z,2.30
2018-02-03T03:11:02.433Z,2.30
2018-02-03T03:12:04.925Z,2.30
2018-02-03T03:13:07.394Z,2.40
2018-02-03T03:14:09.896Z,2.30
2018-02-03T03:15:13.260Z,2.30
2018-02-03T03:16:15.732Z,2.30
2018-02-03T03:17:18.231Z,2.30
2018-02-03T03:18:21.345Z,2.40
2018-02-03T03:19:23.819Z,2.40
2018-02-03T03:20:26.337Z,2.40
2018-02-03T03:21:28.837Z,2.40
2018-02-03T03:22:32.071Z,2.40
2018-02-03T03:23:34.565Z,2.40
2018-02-03T03:24:37.078Z,2.40
2018-02-03T03:25:40.327Z,2.50
2018-02-03T03:26:42.808Z,2.50
2018-02-03T03:27:45.292Z,2.50
2018-02-03T03:28:48.556Z,2.40
2018-02-03T03:29:51.344Z,2.40
2018-02-03T03:30:54.770Z,2.40
2018-02-03T03:31:57.300Z,2.40
2018-02-03T03:32:59.783Z,2.40
2018-02-03T03:34:02.282Z,2.40
2018-02-03T03:35:04.791Z,2.40
2018-02-03T03:36:07.269Z,2.40
2018-02-03T03:37:09.863Z,2.30
2018-02-03T03:38:12.378Z,2.30
2018-02-03T03:39:14.886Z,2.30
2018-02-03T03:40:17.367Z,2.30
2018-02-03T03:41:19.845Z,2.30
2018-02-03T03:42:22.392Z,2.40
2018-02-03T03:43:24.879Z,2.30
2018-02-03T03:44:27.441Z,2.30
2018-02-03T03:45:31.466Z,2.30
2018-02-03T03:46:33.959Z,2.40
2018-02-03T03:47:37.481Z,2.40
2018-02-03T03:48:39.971Z,2.40
2018-02-03T03:49:42.584Z,2.40
2018-02-03T03:50:45.839Z,2.40
2018-02-03T03:51:48.310Z,2.40
2018-02-03T03:52:50.794Z,2.40
2018-02-03T03:53:53.309Z,2.40
2018-02-03T03:54:55.813Z,2.40
2018-02-03T03:55:58.306Z,2.30
2018-02-03T03:57:00.779Z,2.40
2018-02-03T03:58:03.252Z,2.40
2018-02-03T03:59:05.732Z,2.40
2018-02-03T04:00:08.235Z,2.40
2018-02-03T04:01:10.775Z,2.30
2018-02-03T04:02:13.246Z,2.30
2018-02-03T04:03:16.738Z,2.30
2018-02-03T04:04:19.237Z,2.30
2018-02-03T04:05:21.735Z,2.30
2018-02-03T04:06:24.228Z,2.30
2018-02-03T04:07:26.742Z,2.30
2018-02-03T04:08:30.032Z,2.30
2018-02-03T04:09:32.517Z,2.30
2018-02-03T04:10:34.989Z,2.30
2018-02-03T04:11:37.494Z,2.40
2018-02-03T04:12:40.084Z,2.30
2018-02-03T04:13:43.370Z,2.30
2018-02-03T04:14:45.872Z,2.30
2018-02-03T04:15:49.117Z,2.30
2018-02-03T04:16:51.595Z,2.30
2018-02-03T04:17:54.070Z,2.30
2018-02-03T04:18:56.587Z,2.20
2018-02-03T04:19:59.084Z,2.20
2018-02-03T04:21:01.612Z,2.20
2018-02-03T04:22:04.107Z,2.10
2018-02-03T04:23:06.570Z,2.20
2018-02-03T04:24:09.033Z,2.10
2018-02-03T04:25:12.626Z,2.10
2018-02-03T04:26:15.120Z,2.10
2018-02-03T04:27:17.672Z,2.10
2018-02-03T04:28:20.162Z,2.10
2018-02-03T04:29:22.637Z,2.10
2018-02-03T04:30:25.161Z,2.10
2018-02-03T04:31:28.403Z,2.10
2018-02-03T04:32:30.907Z,2.10
2018-02-03T04:33:34.143Z,2.20
2018-02-03T04:34:36.633Z,2.10
2018-02-03T04:35:39.136Z,2.10
2018-02-03T04:36:42.091Z,2.20
2018-02-03T04:37:44.587Z,2.20
2018-02-03T04:38:47.056Z,2.20
2018-02-03T04:39:50.336Z,2.20
2018-02-03T04:40:52.833Z,2.20
2018-02-03T04:41:55.297Z,2.20
2018-02-03T04:42:58.559Z,2.20
2018-02-03T04:44:01.080Z,2.10
2018-02-03T04:45:03.555Z,2.20
2018-02-03T04:46:06.070Z,2.10
2018-02-03T04:47:08.553Z,2.10
2018-02-03T04:48:11.722Z,2.10
2018-02-03T04:49:14.196Z,2.10
2018-02-03T04:50:17.361Z,2.10
2018-02-03T04:51:19.832Z,2.10
2018-02-03T04:52:22.309Z,2.10
2018-02-03T04:53:24.799Z,2.10
2018-02-03T04:54:27.273Z,2.10
2018-02-03T04:55:29.783Z,2.10
2018-02-03T04:56:32.257Z,2.10
2018-02-03T04:57:34.756Z,2.10
2018-02-03T04:58:37.245Z,2.10
2018-02-03T04:59:39.812Z,2.10
2018-02-03T05:00:42.888Z,2.10
2018-02-03T05:01:45.361Z,2.10
2018-02-03T05:02:47.837Z,2.10
2018-02-03T05:03:50.309Z,2.10
2018-02-03T05:04:52.829Z,2.10
2018-02-03T05:05:55.312Z,2.10
2018-02-03T05:19:58.923Z,2.00
2018-02-03T05:21:01.725Z,1.90
2018-02-03T05:22:04.216Z,2.00
2018-02-03T05:23:06.736Z,2.00
2018-02-03T05:24:09.255Z,2.00
2018-02-03T05:25:11.782Z,2.00
2018-02-03T05:26:15.044Z,1.90
2018-02-03T05:27:17.808Z,1.90
2018-02-03T05:28:20.314Z,1.90
2018-02-03T05:29:22.789Z,1.90
2018-02-03T05:30:25.287Z,1.90
2018-02-03T05:31:27.780Z,1.90
2018-02-03T05:32:30.307Z,2.00
2018-02-03T05:33:32.791Z,1.90
2018-02-03T05:34:36.077Z,1.90
2018-02-03T05:35:40.097Z,1.90
2018-02-03T05:36:42.723Z,1.90
2018-02-03T05:37:45.245Z,1.90
2018-02-03T05:38:47.719Z,1.90
2018-02-03T05:39:50.258Z,1.80
2018-02-03T05:40:53.537Z,1.80
2018-02-03T05:41:56.038Z,1.80
2018-02-03T05:42:58.527Z,1.80
2018-02-03T05:44:01.060Z,1.80
2018-02-03T05:45:06.081Z,1.80
2018-02-03T05:46:08.596Z,1.90
2018-02-03T05:47:11.291Z,1.90
2018-02-03T05:48:13.811Z,1.90
2018-02-03T05:49:17.056Z,1.90
2018-02-03T05:50:19.544Z,1.90
2018-02-03T05:51:22.058Z,1.90
2018-02-03T05:52:24.576Z,1.90
2018-02-03T05:53:27.053Z,1.90
2018-02-03T05:54:29.689Z,2.00
2018-02-03T05:55:33.222Z,1.90
2018-02-03T05:56:36.502Z,1.90
2018-02-03T05:57:39.017Z,1.90
2018-02-03T05:58:41.953Z,1.90
2018-02-03T05:59:44.458Z,1.90
2018-02-03T06:00:47.742Z,1.90
2018-02-03T06:01:50.994Z,1.90
2018-02-03T06:02:53.636Z,1.90
2018-02-03T06:03:56.164Z,1.90
2018-02-03T06:04:58.667Z,2.00
2018-02-03T06:06:01.150Z,1.90
2018-02-03T06:07:03.645Z,1.90
2018-02-03T06:08:06.125Z,1.90
2018-02-03T06:09:08.613Z,1.90
2018-02-03T06:10:11.149Z,1.90
2018-02-03T06:11:13.658Z,1.90
2018-02-03T06:12:16.148Z,2.00
2018-02-03T06:13:19.408Z,1.90
2018-02-03T06:14:22.736Z,1.90
2018-02-03T06:15:26.728Z,1.80
2018-02-03T06:16:30.023Z,1.80
2018-02-03T06:17:33.321Z,1.80
2018-02-03T06:18:37.570Z,1.80
2018-02-03T06:19:40.110Z,1.80
2018-02-03T06:20:42.632Z,1.90
2018-02-03T06:21:45.137Z,1.80
2018-02-03T06:22:47.641Z,1.80
2018-02-03T06:23:50.135Z,1.80
2018-02-03T06:24:52.660Z,1.80
2018-02-03T06:25:55.174Z,1.80
2018-02-03T06:26:57.665Z,1.80
2018-02-03T06:28:00.158Z,1.80
2018-02-03T06:41:57.721Z,1.80
2018-02-03T06:43:00.215Z,1.90
2018-02-03T06:44:03.646Z,1.90
2018-02-03T06:45:06.143Z,1.90
2018-02-03T06:46:10.148Z,1.90
2018-02-03T06:47:13.642Z,1.90
2018-02-03T06:48:16.133Z,2.00
2018-02-03T06:49:18.649Z,2.00
2018-02-03T06:50:21.904Z,2.00
2018-02-03T06:51:24.404Z,2.00
2018-02-03T06:52:27.632Z,2.10
2018-02-03T06:53:30.147Z,2.00
2018-02-03T06:54:32.622Z,2.10
2018-02-03T06:55:35.888Z,2.10
2018-02-03T06:56:38.373Z,2.10
2018-02-03T06:57:40.857Z,2.10
2018-02-03T06:58:43.354Z,2.10
2018-02-03T06:59:45.872Z,2.20
2018-02-03T07:00:48.394Z,2.20
2018-02-03T07:01:50.920Z,2.20
2018-02-03T07:02:53.439Z,2.30
2018-02-03T07:03:55.935Z,2.30
2018-02-03T07:04:58.422Z,2.30
2018-02-03T07:06:00.916Z,2.30
2018-02-03T07:07:04.155Z,2.30
2018-02-03T07:08:06.687Z,2.30
2018-02-03T07:09:10.005Z,2.30
2018-02-03T07:10:12.563Z,2.20
2018-02-03T07:11:15.851Z,2.30
2018-02-03T07:12:18.420Z,2.40
2018-02-03T07:13:20.885Z,2.40
2018-02-03T07:14:24.160Z,2.50
2018-02-03T07:15:27.468Z,2.40
2018-02-03T07:16:29.963Z,2.40
2018-02-03T07:17:32.532Z,2.50
2018-02-03T07:18:35.313Z,2.50
2018-02-03T07:19:37.883Z,2.50
2018-02-03T07:20:40.380Z,2.50
2018-02-03T07:21:44.407Z,2.50
2018-02-03T07:22:46.936Z,2.50
2018-02-03T07:23:49.424Z,2.50
2018-02-03T07:24:51.924Z,2.50
2018-02-03T07:25:56.465Z,2.60
2018-02-03T07:26:59.746Z,2.60
2018-02-03T07:28:03.033Z,2.70
2018-02-03T07:29:06.893Z,2.70
2018-02-03T07:30:09.578Z,2.70
2018-02-03T07:31:12.244Z,2.60
2018-02-03T07:32:14.801Z,2.60
2018-02-03T07:33:17.343Z,2.60
2018-02-03T07:34:20.583Z,2.70
2018-02-03T07:35:23.364Z,2.70
2018-02-03T07:36:27.489Z,2.70
2018-02-03T07:37:30.012Z,2.70
2018-02-03T07:39:47.049Z,2.80
2018-02-03T07:40:49.543Z,2.80
2018-02-03T07:41:52.814Z,2.90
2018-02-03T07:42:55.323Z,2.90
2018-02-03T07:43:57.824Z,2.90
2018-02-03T07:45:00.660Z,2.90
2018-02-03T07:46:03.140Z,2.90
2018-02-03T07:47:05.728Z,2.90
2018-02-03T07:48:09.116Z,3.00
2018-02-03T07:49:11.630Z,3.00
2018-02-03T07:50:14.223Z,3.00
2018-02-03T07:51:17.689Z,3.10
2018-02-03T07:52:21.634Z,3.00
2018-02-03T07:53:25.547Z,3.10
2018-02-03T07:54:28.070Z,3.10
2018-02-03T07:55:30.600Z,3.10
2018-02-03T07:56:34.534Z,3.20
2018-02-03T07:57:37.153Z,3.20
2018-02-03T07:58:40.405Z,3.10
2018-02-03T07:59:42.931Z,3.20
2018-02-03T08:00:45.523Z,3.20
2018-02-03T08:01:48.051Z,3.10
2018-02-03T08:02:50.562Z,3.10
2018-02-03T08:03:55.005Z,3.10
2018-02-03T08:04:58.280Z,3.20
2018-02-03T08:06:00.811Z,3.10
2018-02-03T08:07:04.123Z,3.20
2018-02-03T08:08:06.626Z,3.20
2018-02-03T08:09:10.442Z,3.30
2018-02-03T08:10:12.949Z,3.30
2018-02-03T08:11:17.544Z,3.30
2018-02-03T08:12:21.295Z,3.30
2018-02-03T08:13:25.735Z,3.30
2018-02-03T08:14:28.572Z,3.30
2018-02-03T08:15:31.097Z,3.40
2018-02-03T08:16:33.640Z,3.50
2018-02-03T08:17:36.927Z,3.50
2018-02-03T08:18:40.206Z,3.50
2018-02-03T08:19:43.724Z,3.50
2018-02-03T08:20:47.020Z,3.60
2018-02-03T08:21:49.644Z,3.50
2018-02-03T08:22:52.493Z,3.50
2018-02-03T08:23:55.016Z,3.50
2018-02-03T08:24:58.448Z,3.40
2018-02-03T08:26:01.834Z,3.40
2018-02-03T08:27:05.436Z,3.40
2018-02-03T08:28:07.970Z,3.50
2018-02-03T08:29:10.497Z,3.50
2018-02-03T08:30:13.020Z,3.40
2018-02-03T08:31:16.289Z,3.50
2018-02-03T08:32:18.781Z,3.50
2018-02-03T08:33:22.087Z,3.60
2018-02-03T08:34:24.621Z,3.60
2018-02-03T08:35:27.704Z,3.60
2018-02-03T08:36:30.288Z,3.60
2018-02-03T08:37:33.644Z,3.60
2018-02-03T08:38:36.122Z,3.60
2018-02-03T08:39:38.669Z,3.60
2018-02-03T08:40:41.175Z,3.60
2018-02-03T08:41:43.690Z,3.70
2018-02-03T08:42:46.192Z,3.70
2018-02-03T08:43:48.707Z,3.70
2018-02-03T08:44:52.002Z,3.80
2018-02-03T08:45:55.275Z,3.90
2018-02-03T08:46:59.518Z,3.90
2018-02-03T08:48:02.027Z,3.90
2018-02-03T08:49:04.550Z,4.00
2018-02-03T08:50:07.830Z,4.10
2018-02-03T08:51:11.134Z,4.20
2018-02-03T08:52:13.720Z,4.10
2018-02-03T08:53:16.377Z,4.20
2018-02-03T08:54:18.891Z,4.20
2018-02-03T08:55:21.524Z,4.30
2018-02-03T08:56:24.067Z,4.30
2018-02-03T08:57:26.584Z,4.20
2018-02-03T08:58:29.078Z,4.20
2018-02-03T08:59:31.578Z,4.20
2018-02-03T09:00:34.123Z,4.30
2018-02-03T09:01:36.667Z,4.40
2018-02-03T09:02:39.163Z,4.30
2018-02-03T09:03:41.650Z,4.40
2018-02-03T09:04:44.151Z,4.40
2018-02-03T09:05:47.547Z,4.40
2018-02-03T09:06:52.090Z,4.40
2018-02-03T09:07:55.441Z,4.40
2018-02-03T09:08:58.712Z,4.40
2018-02-03T09:10:01.211Z,4.30
2018-02-03T09:11:03.722Z,4.40
2018-02-03T09:12:06.984Z,4.40
2018-02-03T09:13:10.771Z,4.40
2018-02-03T09:14:13.265Z,4.40
2018-02-03T09:15:15.802Z,4.30
2018-02-03T09:16:19.071Z,4.30
2018-02-03T09:17:22.342Z,4.30
2018-02-03T09:18:24.852Z,4.30
2018-02-03T09:19:28.124Z,4.40
2018-02-03T09:20:30.614Z,4.30
2018-02-03T09:21:33.920Z,4.40
2018-02-03T09:22:36.533Z,4.50
2018-02-03T09:23:39.043Z,4.40
2018-02-03T09:24:41.555Z,4.50
2018-02-03T09:25:44.142Z,4.60
2018-02-03T09:26:46.696Z,4.50
2018-02-03T09:27:49.242Z,4.60
2018-02-03T09:28:51.762Z,4.70
2018-02-03T09:29:54.280Z,4.80
2018-02-03T09:30:56.796Z,4.80
2018-02-03T09:31:59.310Z,4.70
2018-02-03T09:33:02.570Z,4.70
2018-02-03T09:34:05.864Z,4.70
2018-02-03T09:35:11.171Z,4.80
2018-02-03T09:36:13.774Z,4.80
2018-02-03T09:37:16.322Z,4.80
2018-02-03T09:38:18.865Z,4.80
2018-02-03T09:39:21.364Z,4.90
2018-02-03T09:40:23.913Z,4.90
2018-02-03T09:41:26.437Z,5.00
2018-02-03T09:42:29.718Z,5.10
2018-02-03T09:43:33.023Z,5.10
2018-02-03T09:44:36.282Z,5.20
2018-02-03T09:45:40.278Z,5.10
2018-02-03T09:46:42.783Z,5.10
2018-02-03T09:47:46.065Z,5.30
2018-02-03T09:48:49.358Z,5.30
2018-02-03T09:49:52.617Z,5.30
2018-02-03T09:50:55.111Z,5.30
2018-02-03T09:51:57.639Z,5.40
2018-02-03T09:53:00.145Z,5.40
2018-02-03T09:54:02.634Z,5.40
2018-02-03T09:55:05.142Z,5.50
2018-02-03T09:56:07.676Z,5.50
2018-02-03T09:57:10.990Z,5.60
2018-02-03T09:58:13.506Z,5.60
2018-02-03T09:59:16.823Z,5.60
2018-02-03T10:00:20.084Z,5.80
2018-02-03T10:01:22.607Z,5.80
2018-02-03T10:02:25.192Z,5.80
2018-02-03T10:03:27.705Z,5.90
2018-02-03T10:04:30.188Z,6.00
2018-02-03T10:05:33.449Z,6.10
2018-02-03T10:06:36.065Z,6.10
2018-02-03T10:07:38.556Z,6.10
2018-02-03T10:08:41.076Z,6.20
2018-02-03T10:09:44.348Z,6.40
2018-02-03T10:10:46.860Z,6.40
2018-02-03T10:11:50.312Z,6.40
2018-02-03T10:12:52.809Z,6.40
2018-02-03T10:13:56.090Z,6.40
2018-02-03T10:14:59.342Z,6.40
2018-02-03T10:16:01.871Z,6.30
2018-02-03T10:17:04.373Z,6.50
2018-02-03T10:18:06.855Z,6.40
2018-02-03T10:19:09.381Z,6.40
2018-02-03T10:20:11.899Z,6.40
2018-02-03T10:21:14.527Z,6.40
2018-02-03T10:22:17.038Z,6.50
2018-02-03T10:23:19.539Z,6.60
2018-02-03T10:24:22.039Z,6.70
2018-02-03T10:25:24.619Z,6.90
2018-02-03T10:26:27.118Z,7.00
2018-02-03T10:27:29.630Z,7.10
2018-02-03T10:28:32.912Z,7.30
2018-02-03T10:29:36.167Z,7.40
2018-02-03T10:30:38.682Z,7.40
2018-02-03T10:31:41.219Z,7.50
2018-02-03T10:32:43.720Z,7.40
2018-02-03T10:33:47.002Z,7.50
2018-02-03T10:34:50.306Z,7.50
2018-02-03T10:35:53.614Z,7.60
2018-02-03T10:36:56.127Z,7.60
2018-02-03T10:37:58.747Z,7.60
2018-02-03T10:39:01.271Z,7.60
2018-02-03T10:40:03.786Z,7.50
2018-02-03T10:41:06.281Z,7.40
2018-02-03T10:42:08.781Z,7.50
2018-02-03T10:43:11.317Z,7.50
2018-02-03T10:44:13.888Z,7.40
2018-02-03T10:46:25.446Z,7.40
2018-02-03T10:47:28.696Z,7.20
2018-02-03T10:48:31.216Z,7.20
2018-02-03T10:49:33.754Z,7.20
2018-02-03T10:50:36.269Z,7.20
2018-02-03T10:51:38.765Z,7.30
2018-02-03T10:52:41.280Z,7.30
2018-02-03T10:53:43.777Z,7.30
2018-02-03T10:54:46.288Z,7.40
2018-02-03T10:55:48.787Z,7.40
2018-02-03T10:56:51.306Z,7.30
2018-02-03T10:57:53.988Z,7.50
2018-02-03T10:58:56.523Z,7.50
2018-02-03T10:59:59.807Z,7.60
2018-02-03T11:01:11.867Z,7.70
2018-02-03T11:02:15.209Z,7.70
2018-02-03T11:03:18.474Z,7.80
2018-02-03T11:04:21.743Z,7.80
2018-02-03T11:05:24.267Z,7.80
2018-02-03T11:06:26.775Z,7.80
2018-02-03T11:07:30.886Z,7.90
2018-02-03T11:08:33.390Z,7.80
2018-02-03T11:09:37.099Z,7.80
2018-02-03T11:10:39.624Z,7.80
2018-02-03T11:11:42.253Z,7.70
2018-02-03T11:12:44.844Z,7.50
2018-02-03T11:13:47.355Z,7.30
2018-02-03T11:14:50.087Z,7.20
2018-02-03T11:15:52.636Z,7.30
2018-02-03T11:16:55.428Z,7.20
2018-02-03T11:17:57.995Z,7.20
2018-02-03T11:19:01.588Z,7.10
2018-02-03T11:20:04.861Z,7.10
2018-02-03T11:21:08.198Z,7.10
2018-02-03T11:22:10.732Z,7.10
2018-02-03T11:23:13.335Z,7.10
2018-02-03T11:24:17.971Z,7.00
2018-02-03T11:25:20.507Z,7.00
2018-02-03T11:26:23.346Z,7.00
2018-02-03T11:27:26.657Z,7.00
2018-02-03T11:28:29.943Z,7.10
2018-02-03T11:29:33.219Z,7.10
2018-02-03T11:30:35.727Z,7.10
2018-02-03T11:31:38.289Z,7.10
2018-02-03T11:32:40.797Z,7.10
2018-02-03T11:33:43.339Z,7.10
2018-02-03T11:34:45.846Z,7.10
2018-02-03T11:35:48.414Z,7.10
2018-02-03T11:36:50.932Z,7.10
2018-02-03T11:37:54.229Z,7.20
2018-02-03T11:38:57.557Z,7.20
2018-02-03T11:40:01.604Z,7.20
2018-02-03T11:41:05.523Z,7.20
2018-02-03T11:42:08.817Z,7.10
2018-02-03T11:43:11.330Z,7.10
2018-02-03T11:44:13.881Z,7.20
2018-02-03T11:45:16.433Z,7.10
2018-02-03T11:46:18.940Z,7.10
2018-02-03T11:47:21.451Z,7.10
2018-02-03T11:48:23.957Z,7.10
2018-02-03T11:49:26.475Z,7.20
2018-02-03T11:50:29.802Z,7.20
2018-02-03T11:51:32.292Z,7.20
2018-02-03T11:52:34.794Z,7.30
2018-02-03T11:53:37.323Z,7.30
2018-02-03T11:54:39.911Z,7.40
2018-02-03T11:55:42.429Z,7.40
2018-02-03T11:56:44.960Z,7.30
2018-02-03T11:57:47.460Z,7.30
2018-02-03T11:58:50.899Z,7.20
2018-02-03T11:59:53.410Z,7.20
2018-02-03T12:00:55.920Z,7.20
2018-02-03T12:01:59.220Z,7.10
2018-02-03T12:03:01.731Z,7.20
2018-02-03T12:04:04.230Z,7.20
2018-02-03T12:05:07.262Z,7.10
2018-02-03T12:06:09.795Z,7.20
2018-02-03T12:07:13.310Z,7.10
2018-02-03T12:08:16.032Z,7.10
2018-02-03T12:09:19.455Z,7.10
2018-02-03T12:10:22.741Z,7.30
2018-02-03T12:11:26.024Z,7.40
2018-02-03T12:12:28.584Z,7.40
2018-02-03T12:13:31.103Z,7.40
2018-02-03T12:14:33.618Z,7.50
2018-02-03T12:15:36.118Z,7.60
2018-02-03T12:16:40.851Z,7.60
2018-02-03T12:17:44.146Z,7.60
2018-02-03T12:18:46.671Z,7.60
2018-02-03T12:19:49.202Z,7.60
2018-02-03T12:20:51.742Z,7.70
2018-02-03T12:21:54.363Z,7.70
2018-02-03T12:22:58.057Z,7.70
2018-02-03T12:24:00.560Z,7.70
2018-02-03T12:25:03.054Z,7.60
2018-02-03T12:26:05.548Z,7.70
2018-02-03T12:27:08.860Z,7.70
2018-02-03T12:28:11.399Z,7.70
2018-02-03T12:29:15.054Z,7.80
2018-02-03T12:30:17.649Z,7.80
2018-02-03T12:31:20.143Z,7.90
2018-02-03T12:32:22.684Z,7.80
2018-02-03T12:33:25.914Z,7.90
2018-02-03T12:34:29.189Z,7.90
2018-02-03T12:35:31.661Z,7.90
2018-02-03T12:36:34.312Z,7.90
2018-02-03T12:37:36.844Z,7.90
2018-02-03T12:38:39.345Z,7.90
2018-02-03T12:39:41.828Z,7.80
2018-02-03T12:40:44.311Z,7.80
2018-02-03T12:41:46.820Z,7.70
2018-02-03T12:42:49.338Z,7.60
2018-02-03T12:43:52.567Z,7.60
2018-02-03T12:44:56.649Z,7.50
2018-02-03T12:45:59.146Z,7.50
2018-02-03T12:47:02.401Z,7.50
2018-02-03T12:48:05.015Z,7.40
2018-02-03T12:49:07.505Z,7.40
2018-02-03T12:50:10.014Z,7.30
2018-02-03T12:51:12.520Z,7.20
2018-02-03T12:52:15.247Z,7.10
2018-02-03T12:53:17.742Z,7.10
2018-02-03T12:54:20.241Z,7.10
2018-02-03T12:55:22.801Z,7.10
2018-02-03T12:56:26.069Z,7.10
2018-02-03T12:57:28.563Z,7.10
2018-02-03T12:58:31.834Z,7.10
2018-02-03T12:59:34.391Z,7.10
2018-02-03T13:00:36.897Z,7.20
2018-02-03T13:01:40.787Z,7.20
2018-02-03T13:02:44.036Z,7.40
2018-02-03T13:03:46.549Z,7.30
2018-02-03T13:04:50.033Z,7.40
2018-02-03T13:05:53.263Z,7.30
2018-02-03T13:06:55.754Z,7.40
2018-02-03T13:07:59.874Z,7.50
2018-02-03T13:09:02.377Z,7.50
2018-02-03T13:10:04.872Z,7.50
2018-02-03T13:11:07.403Z,7.50
2018-02-03T13:12:09.938Z,7.50
2018-02-03T13:13:12.437Z,7.60
2018-02-03T13:14:14.974Z,7.50
2018-02-03T13:15:17.575Z,7.60
2018-02-03T13:16:20.057Z,7.60
2018-02-03T13:17:22.635Z,7.60
2018-02-03T13:18:25.118Z,7.70
2018-02-03T13:19:27.637Z,7.50
2018-02-03T13:20:30.165Z,7.50
2018-02-03T13:21:33.433Z,7.60
2018-02-03T13:22:35.932Z,7.60
2018-02-03T13:23:39.313Z,7.60
2018-02-03T13:24:42.609Z,7.60
2018-02-03T13:25:46.848Z,7.60
2018-02-03T13:26:49.346Z,7.50
2018-02-03T13:27:52.274Z,7.60
2018-02-03T13:28:56.458Z,7.60
2018-02-03T13:29:58.943Z,7.60
2018-02-03T13:31:01.432Z,7.70
2018-02-03T13:32:04.684Z,7.80
2018-02-03T13:33:07.246Z,7.80
2018-02-03T13:34:11.122Z,7.70
2018-02-03T13:35:13.631Z,7.70
2018-02-03T13:36:16.164Z,7.70
2018-02-03T13:37:18.662Z,7.60
2018-02-03T13:38:21.158Z,7.70
2018-02-03T13:39:23.670Z,7.60
2018-02-03T13:40:26.148Z,7.50
2018-02-03T13:41:28.654Z,7.60
2018-02-03T13:42:31.136Z,7.50
2018-02-03T13:43:33.612Z,7.50
2018-02-03T13:44:36.925Z,7.40
2018-02-03T13:45:40.185Z,7.20
2018-02-03T13:46:44.560Z,7.20
2018-02-03T13:47:47.068Z,7.10
2018-02-03T13:48:49.549Z,7.00
2018-02-03T13:49:52.329Z,7.00
2018-02-03T13:50:54.830Z,7.00
2018-02-03T13:51:57.319Z,6.90
2018-02-03T13:52:59.799Z,6.90
2018-02-03T13:54:02.297Z,6.90
2018-02-03T13:55:05.686Z,6.70
2018-02-03T13:56:08.182Z,6.60
2018-02-03T13:57:11.232Z,6.50
2018-02-03T13:58:13.773Z,6.50
2018-02-03T13:59:17.225Z,6.50
2018-02-03T14:00:19.728Z,6.50
2018-02-03T14:01:22.248Z,6.50
2018-02-03T14:02:24.749Z,6.50
2018-02-03T14:03:28.009Z,6.50
2018-02-03T14:04:30.497Z,6.50
2018-02-03T14:05:33.818Z,6.60
2018-02-03T14:06:36.327Z,6.70
2018-02-03T14:07:38.831Z,6.70
2018-02-03T14:08:42.080Z,6.80
2018-02-03T14:09:44.580Z,6.80
2018-02-03T14:10:47.082Z,6.80
2018-02-03T14:11:49.722Z,6.60
2018-02-03T14:12:52.226Z,6.60
2018-02-03T14:13:55.492Z,6.50
2018-02-03T14:14:57.985Z,6.50
2018-02-03T14:16:00.494Z,6.60
2018-02-03T14:17:02.990Z,6.50
2018-02-03T14:18:05.472Z,6.50
2018-02-03T14:19:08.722Z,6.60
2018-02-03T14:20:11.946Z,6.60
2018-02-03T14:21:14.459Z,6.50
2018-02-03T14:22:18.040Z,6.50
2018-02-03T14:23:20.524Z,6.50
2018-02-03T14:24:28.736Z,6.50